Time;durP1;ratioP1;P1;durP2;ratioP2;P2;SDS_P1;SDS_P2;PMS_P1;PMS_P2;Temp;Humidity;BMP_temperature;BMP_pressure;BME280_temperature;BME280_humidity;BME280_pressure;Samples;Min_cycle;Max_cycle;Signal;HPM_P1;HPM_P2
2024/03/07 00:01:27;;;;;;;24.30;19.73;;;8.40;99.90;;;;;;5060102;28;20499;-79
2024/03/07 00:03:56;;;;;;;26.37;19.40;;;8.50;99.90;;;;;;5053648;28;20511;-78
2024/03/07 00:06:24;;;;;;;24.00;19.30;;;8.50;99.90;;;;;;5056815;28;20485;-82
2024/03/07 00:08:54;;;;;;;23.67;19.40;;;8.40;99.90;;;;;;5062632;28;20510;-83
2024/03/07 00:11:23;;;;;;;25.33;19.33;;;8.50;99.90;;;;;;5061317;28;20504;-82
2024/03/07 00:13:51;;;;;;;24.07;19.90;;;8.40;58.00;;;;;;5063082;28;20453;-83
2024/03/07 00:16:20;;;;;;;27.37;20.27;;;8.40;99.90;;;;;;5061134;28;20462;-83
2024/03/07 00:18:48;;;;;;;26.43;20.80;;;8.40;99.90;;;;;;5059844;28;20465;-83
2024/03/07 00:21:16;;;;;;;25.40;19.30;;;8.40;99.90;;;;;;5062375;28;20477;-82
2024/03/07 00:23:45;;;;;;;23.07;20.10;;;8.40;99.90;;;;;;5061746;28;20457;-82
2024/03/07 00:26:15;;;;;;;25.47;21.07;;;8.40;99.90;;;;;;5064671;28;20880;-82
2024/03/07 00:28:43;;;;;;;25.73;19.87;;;8.30;99.90;;;;;;5063236;28;20471;-81
2024/03/07 00:31:11;;;;;;;27.00;20.20;;;8.30;99.90;;;;;;5063434;28;20548;-82
2024/03/07 00:33:39;;;;;;;28.30;20.70;;;8.30;99.90;;;;;;5058097;28;20447;-82
2024/03/07 00:36:28;;;;;;;28.50;19.53;;;8.40;99.90;;;;;;5061747;28;20461;-84
2024/03/07 00:38:56;;;;;;;25.27;20.13;;;8.30;99.90;;;;;;5063114;28;20452;-81
2024/03/07 00:41:26;;;;;;;34.33;22.17;;;8.30;93.20;;;;;;5061262;28;20477;-82
2024/03/07 00:43:54;;;;;;;29.47;21.60;;;8.40;4.80;;;;;;5070780;28;21354;-81
2024/03/07 00:46:22;;;;;;;26.97;21.37;;;8.20;1.00;;;;;;5075933;28;20465;-79
2024/03/07 00:48:50;;;;;;;29.00;21.60;;;8.20;1.00;;;;;;5068498;28;20961;-81
2024/03/07 00:51:19;;;;;;;32.13;21.37;;;8.20;1.00;;;;;;5064866;28;20502;-82
2024/03/07 00:53:48;;;;;;;26.83;21.50;;;8.20;1.00;;;;;;5065624;28;20514;-81
2024/03/07 00:56:17;;;;;;;28.87;21.00;;;8.20;1.00;;;;;;5064116;28;20985;-82
2024/03/07 00:58:46;;;;;;;31.70;23.60;;;8.20;1.00;;;;;;5062052;28;20476;-79
2024/03/07 01:01:15;;;;;;;31.80;21.87;;;8.10;99.90;;;;;;5064587;28;20470;-81
2024/03/07 01:03:44;;;;;;;26.80;20.83;;;8.10;99.90;;;;;;5064125;28;20456;-79
2024/03/07 01:06:12;;;;;;;32.87;22.43;;;8.10;99.90;;;;;;5063156;28;20449;-80
2024/03/07 01:08:41;;;;;;;31.77;23.93;;;8.10;99.90;;;;;;5064423;28;21001;-81
2024/03/07 01:11:11;;;;;;;31.00;23.20;;;8.10;99.90;;;;;;5066324;28;20450;-81
2024/03/07 01:13:40;;;;;;;29.27;21.90;;;8.10;99.90;;;;;;5066360;28;20448;-80
2024/03/07 01:16:10;;;;;;;29.53;22.30;;;8.00;99.90;;;;;;5059075;28;20525;-81
2024/03/07 01:18:38;;;;;;;30.80;22.43;;;8.00;99.90;;;;;;5060971;28;20466;-81
2024/03/07 01:21:08;;;;;;;30.60;22.40;;;8.00;99.90;;;;;;5058982;28;20534;-81
2024/03/07 01:23:36;;;;;;;29.30;22.83;;;8.00;99.90;;;;;;5059868;28;20573;-80
2024/03/07 01:26:04;;;;;;;31.97;22.93;;;7.90;99.90;;;;;;5056872;28;20964;-80
2024/03/07 01:28:32;;;;;;;33.93;23.83;;;7.90;99.90;;;;;;5064372;28;20465;-81
2024/03/07 01:31:01;;;;;;;31.47;23.43;;;7.90;99.90;;;;;;5061488;28;20483;-81
2024/03/07 01:33:30;;;;;;;31.20;23.50;;;7.90;99.90;;;;;;5055443;28;20459;-82
2024/03/07 01:35:59;;;;;;;29.20;22.20;;;7.90;99.90;;;;;;5057935;28;20519;-82
2024/03/07 01:38:27;;;;;;;32.47;25.10;;;7.80;99.90;;;;;;5057324;28;20884;-81
2024/03/07 01:40:55;;;;;;;32.80;23.50;;;7.80;99.90;;;;;;5057847;28;20495;-80
2024/03/07 01:43:23;;;;;;;33.10;23.67;;;7.80;99.90;;;;;;5061781;28;20534;-81
2024/03/07 01:45:56;;;;;;;33.93;24.70;;;7.80;88.90;;;;;;5057706;28;20472;-79
2024/03/07 01:48:28;;;;;;;40.13;25.70;;;7.70;14.10;;;;;;5061147;28;20533;-80
2024/03/07 01:50:59;;;;;;;38.83;25.00;;;7.60;10.40;;;;;;5056975;28;20487;-81
2024/03/07 01:53:28;;;;;;;35.27;23.47;;;7.50;1.00;;;;;;5060337;28;20459;-81
2024/03/07 01:55:57;;;;;;;40.03;22.97;;;7.50;14.80;;;;;;5059425;28;20460;-81
2024/03/07 01:58:25;;;;;;;32.13;23.53;;;7.50;10.60;;;;;;5061034;28;20499;-81
2024/03/07 02:00:54;;;;;;;36.20;24.80;;;7.40;1.00;;;;;;5057805;28;20550;-81
2024/03/07 02:03:22;;;;;;;34.60;24.10;;;7.40;2.30;;;;;;5057653;28;20449;-80
2024/03/07 02:05:51;;;;;;;35.17;23.80;;;7.40;1.00;;;;;;5056927;28;20454;-80
2024/03/07 02:08:21;;;;;;;34.03;24.10;;;7.40;1.00;;;;;;5061896;28;20476;-79
2024/03/07 02:10:49;;;;;;;29.73;23.50;;;7.40;1.00;;;;;;5058682;28;20463;-80
2024/03/07 02:13:18;;;;;;;32.77;23.17;;;7.30;1.00;;;;;;5060176;28;20455;-79
2024/03/07 02:15:46;;;;;;;31.70;23.43;;;7.20;1.00;;;;;;5058146;28;20468;-78
2024/03/07 02:18:14;;;;;;;29.87;23.00;;;7.20;1.00;;;;;;5056168;28;21001;-78
2024/03/07 02:20:46;;;;;;;30.70;22.57;;;7.20;1.00;;;;;;5057805;28;20451;-79
2024/03/07 02:23:14;;;;;;;33.50;25.00;;;7.10;1.00;;;;;;5053899;28;20477;-80
2024/03/07 02:25:43;;;;;;;31.37;22.70;;;7.10;1.00;;;;;;5054668;28;21037;-80
2024/03/07 02:28:11;;;;;;;33.43;25.00;;;7.10;1.00;;;;;;5052626;28;21020;-78
2024/03/07 02:30:39;;;;;;;34.10;23.93;;;7.10;1.00;;;;;;5052642;28;21032;-78
2024/03/07 02:33:07;;;;;;;33.27;23.10;;;7.00;1.00;;;;;;5057421;28;20453;-81
2024/03/07 02:35:36;;;;;;;35.23;23.60;;;6.90;1.00;;;;;;5056784;28;20453;-81
2024/03/07 02:38:06;;;;;;;34.70;25.30;;;6.80;1.00;;;;;;5058190;28;21015;-81
2024/03/07 02:40:34;;;;;;;34.60;24.27;;;6.70;1.00;;;;;;5058880;28;20459;-81
2024/03/07 02:43:04;;;;;;;42.70;23.53;;;6.70;1.00;;;;;;5057936;28;20510;-82
2024/03/07 02:45:33;;;;;;;33.00;23.60;;;6.70;1.00;;;;;;5061153;28;20480;-81
2024/03/07 02:48:01;;;;;;;30.17;23.03;;;6.70;1.00;;;;;;5058353;28;20522;-81
2024/03/07 02:50:30;;;;;;;32.60;23.10;;;6.70;1.00;;;;;;5060210;28;20462;-81
2024/03/07 02:52:58;;;;;;;32.37;23.10;;;6.70;1.00;;;;;;5056417;28;20475;-82
2024/03/07 02:55:27;;;;;;;35.10;24.37;;;6.60;1.00;;;;;;5060302;28;20515;-83
2024/03/07 02:57:58;;;;;;;35.23;25.43;;;6.60;1.00;;;;;;5060476;28;20493;-81
2024/03/07 03:00:29;;;;;;;31.23;23.77;;;6.60;1.00;;;;;;5064256;28;20483;-82
2024/03/07 03:02:58;;;;;;;31.77;23.30;;;6.60;1.00;;;;;;5060318;28;20464;-81
2024/03/07 03:05:26;;;;;;;32.23;24.80;;;6.60;1.00;;;;;;5056592;28;20457;-82
2024/03/07 03:07:54;;;;;;;32.27;22.17;;;6.60;1.00;;;;;;5057213;28;20550;-81
2024/03/07 03:10:25;;;;;;;32.53;22.90;;;6.70;1.00;;;;;;5059291;28;20966;-81
2024/03/07 03:12:59;;;;;;;30.43;20.60;;;6.70;1.00;;;;;;5054254;28;20443;-80
2024/03/07 03:15:29;;;;;;;30.20;22.60;;;6.60;1.00;;;;;;5060470;28;20474;-80
2024/03/07 03:17:59;;;;;;;34.40;23.47;;;6.70;1.00;;;;;;5063753;28;20474;-80
2024/03/07 03:20:33;;;;;;;31.23;24.10;;;6.70;1.00;;;;;;5060505;28;20441;-80
2024/03/07 03:23:03;;;;;;;33.87;23.83;;;6.70;1.00;;;;;;5064250;28;20468;-82
2024/03/07 03:25:49;;;;;;;35.23;23.00;;;6.60;1.00;;;;;;5060164;28;20459;-81
2024/03/07 03:28:20;;;;;;;34.80;22.40;;;6.60;1.00;;;;;;5059947;28;20461;-80
2024/03/07 03:30:50;;;;;;;34.77;25.00;;;6.60;1.00;;;;;;5060016;28;20460;-81
2024/03/07 03:33:18;;;;;;;33.33;22.83;;;6.50;1.00;;;;;;5060286;28;20445;-79
2024/03/07 03:35:47;;;;;;;28.27;22.83;;;6.50;1.00;;;;;;5058536;28;20444;-80
2024/03/07 03:38:17;;;;;;;39.83;22.73;;;6.50;1.00;;;;;;5059994;28;21025;-81
2024/03/07 03:40:46;;;;;;;31.67;23.00;;;6.50;1.00;;;;;;5061274;28;20453;-80
2024/03/07 03:43:15;;;;;;;32.40;22.10;;;6.40;1.00;;;;;;5058744;28;21291;-82
2024/03/07 03:45:45;;;;;;;31.00;23.30;;;6.40;1.00;;;;;;5062590;28;20455;-80
2024/03/07 03:48:13;;;;;;;29.77;21.87;;;6.40;1.00;;;;;;5060002;28;20474;-80
2024/03/07 03:50:41;;;;;;;35.10;25.33;;;6.40;1.00;;;;;;5061047;28;20459;-80
2024/03/07 03:53:10;;;;;;;31.27;22.10;;;6.30;1.00;;;;;;5058920;28;20445;-82
2024/03/07 03:55:38;;;;;;;37.73;22.80;;;6.30;1.00;;;;;;5061400;28;20830;-82
2024/03/07 03:58:06;;;;;;;36.40;22.73;;;6.20;1.00;;;;;;5063564;28;20508;-83
2024/03/07 04:00:34;;;;;;;28.30;22.67;;;6.20;1.00;;;;;;5064469;28;20453;-80
2024/03/07 04:03:04;;;;;;;31.90;21.93;;;6.20;1.00;;;;;;5063753;28;20557;-81
2024/03/07 04:05:32;;;;;;;31.57;23.50;;;6.10;1.00;;;;;;5061172;28;20527;-79
2024/03/07 04:08:20;;;;;;;34.90;23.60;;;6.10;1.00;;;;;;5062321;28;20468;-81
2024/03/07 04:10:48;;;;;;;35.97;23.70;;;6.10;1.00;;;;;;5061119;28;20505;-83
2024/03/07 04:13:17;;;;;;;31.30;23.13;;;6.20;1.00;;;;;;5058828;28;20541;-82
2024/03/07 04:15:45;;;;;;;31.10;23.17;;;6.10;1.00;;;;;;5065433;28;20502;-81
2024/03/07 04:18:14;;;;;;;30.33;22.20;;;6.10;1.00;;;;;;5060633;28;20503;-82
2024/03/07 04:20:44;;;;;;;28.27;20.53;;;6.10;1.00;;;;;;5061429;28;20958;-84
2024/03/07 04:23:12;;;;;;;32.47;22.83;;;6.00;1.00;;;;;;5067524;28;20519;-82
2024/03/07 04:25:41;;;;;;;34.30;23.47;;;6.00;1.00;;;;;;5068611;28;21019;-81
2024/03/07 04:28:10;;;;;;;35.30;24.33;;;6.10;1.00;;;;;;5065993;28;20477;-81
2024/03/07 04:30:38;;;;;;;33.73;24.13;;;6.10;1.00;;;;;;5067990;28;20444;-81
2024/03/07 04:33:06;;;;;;;38.20;24.17;;;6.10;1.00;;;;;;5066540;28;20440;-83
2024/03/07 04:35:36;;;;;;;30.27;23.50;;;6.00;1.00;;;;;;5065737;28;20508;-81
2024/03/07 04:38:09;;;;;;;34.30;22.40;;;6.00;1.00;;;;;;5066192;28;20467;-82
2024/03/07 04:40:38;;;;;;;34.97;24.50;;;6.00;1.00;;;;;;5066755;28;20505;-81
2024/03/07 04:43:07;;;;;;;37.63;24.03;;;6.00;1.00;;;;;;5064928;28;21182;-79
2024/03/07 04:45:35;;;;;;;33.90;23.73;;;6.00;1.00;;;;;;5066380;28;20444;-81
2024/03/07 04:48:04;;;;;;;37.77;23.77;;;5.90;1.00;;;;;;5066245;28;20495;-81
2024/03/07 04:50:33;;;;;;;31.80;23.27;;;5.90;1.00;;;;;;5059979;28;20452;-80
2024/03/07 04:53:03;;;;;;;36.90;25.85;;;5.90;1.00;;;;;;5062883;28;21140;-80
2024/03/07 04:55:31;;;;;;;39.87;26.07;;;5.80;1.00;;;;;;5059817;28;20267;-78
2024/03/07 04:57:59;;;;;;;33.50;25.27;;;5.90;1.00;;;;;;5065728;28;21020;-81
2024/03/07 05:00:29;;;;;;;35.13;25.07;;;5.90;1.00;;;;;;5056357;28;20453;-80
2024/03/07 05:02:57;;;;;;;37.93;23.30;;;5.80;1.00;;;;;;5056961;28;20679;-79
2024/03/07 05:05:26;;;;;;;34.80;24.77;;;5.80;1.00;;;;;;5060636;28;21056;-80
2024/03/07 05:07:55;;;;;;;37.63;25.87;;;5.90;1.00;;;;;;5057251;28;20583;-82
2024/03/07 05:10:28;;;;;;;34.33;23.33;;;5.90;1.00;;;;;;5061626;28;20447;-80
2024/03/07 05:12:58;;;;;;;31.43;23.93;;;5.90;1.00;;;;;;5058659;28;20435;-79
2024/03/07 05:15:26;;;;;;;35.20;24.97;;;5.90;1.00;;;;;;5060923;28;20479;-80
2024/03/07 05:17:56;;;;;;;37.27;24.67;;;5.80;1.00;;;;;;5061244;28;20571;-80
2024/03/07 05:20:24;;;;;;;34.90;24.17;;;5.80;1.00;;;;;;5061112;28;20461;-80
2024/03/07 05:22:55;;;;;;;34.27;24.77;;;5.80;1.00;;;;;;5058097;28;20481;-80
2024/03/07 05:25:25;;;;;;;31.93;23.40;;;5.80;1.00;;;;;;5054840;28;20451;-80
2024/03/07 05:27:54;;;;;;;35.27;24.90;;;5.80;1.00;;;;;;5058343;28;20896;-80
2024/03/07 05:30:24;;;;;;;36.70;25.60;;;5.80;1.00;;;;;;5055876;28;20498;-80
2024/03/07 05:32:53;;;;;;;31.90;24.40;;;5.70;1.00;;;;;;5058736;28;20546;-80
2024/03/07 05:35:22;;;;;;;36.53;25.20;;;5.80;1.00;;;;;;5060109;28;20452;-75
2024/03/07 05:37:50;;;;;;;31.63;24.33;;;5.70;1.00;;;;;;5054563;28;20486;-78
2024/03/07 05:40:20;;;;;;;35.00;23.10;;;5.70;1.00;;;;;;5057960;28;20447;-79
2024/03/07 05:42:49;;;;;;;35.10;25.30;;;5.70;1.00;;;;;;5057139;28;20542;-78
2024/03/07 05:45:18;;;;;;;34.73;24.87;;;5.80;1.00;;;;;;5055688;28;20455;-78
2024/03/07 05:47:48;;;;;;;34.10;23.83;;;5.80;1.00;;;;;;5055774;28;21289;-78
2024/03/07 05:50:18;;;;;;;31.03;22.73;;;5.80;1.00;;;;;;5057290;28;20590;-78
2024/03/07 05:52:48;;;;;;;31.90;23.33;;;5.80;1.00;;;;;;5054189;28;20487;-80
2024/03/07 05:55:18;;;;;;;32.33;22.87;;;5.80;1.00;;;;;;5056069;28;20456;-77
2024/03/07 05:57:48;;;;;;;35.50;25.13;;;5.80;1.00;;;;;;5056844;28;20470;-77
2024/03/07 06:00:26;;;;;;;36.43;23.80;;;5.80;1.00;;;;;;5057009;28;20439;-78
2024/03/07 06:02:56;;;;;;;27.30;20.13;;;5.80;1.00;;;;;;5055257;28;20447;-80
2024/03/07 06:05:24;;;;;;;35.00;24.57;;;5.70;1.00;;;;;;5058350;28;20456;-79
2024/03/07 06:07:53;;;;;;;32.40;23.37;;;5.70;1.00;;;;;;5052576;28;21076;-78
2024/03/07 06:10:23;;;;;;;30.10;22.83;;;5.70;1.00;;;;;;5055671;28;20458;-77
2024/03/07 06:12:53;;;;;;;29.80;22.20;;;5.70;1.00;;;;;;5056589;28;20463;-80
2024/03/07 06:15:25;;;;;;;35.67;23.17;;;5.60;1.00;;;;;;5054971;28;20436;-80
2024/03/07 06:17:53;;;;;;;32.33;21.63;;;5.60;1.00;;;;;;5056519;28;20470;-79
2024/03/07 06:20:24;;;;;;;32.13;24.00;;;5.60;1.00;;;;;;5055726;28;20500;-78
2024/03/07 06:22:53;;;;;;;30.43;24.10;;;5.60;1.00;;;;;;5054887;28;20561;-79
2024/03/07 06:25:33;;;;;;;33.50;22.87;;;5.60;1.00;;;;;;5051491;28;21122;-82
2024/03/07 06:28:08;;;;;;;34.83;23.30;;;5.60;1.00;;;;;;5054072;28;20506;-79
2024/03/07 06:30:39;;;;;;;34.07;21.97;;;5.60;1.00;;;;;;5055089;28;20447;-82
2024/03/07 06:33:07;;;;;;;31.33;23.40;;;5.60;1.00;;;;;;5054616;28;20512;-81
2024/03/07 06:35:36;;;;;;;32.40;24.13;;;5.60;1.00;;;;;;5057478;28;21140;-82
2024/03/07 06:38:06;;;;;;;32.87;21.80;;;5.60;1.00;;;;;;5059765;28;20491;-79
2024/03/07 06:40:34;;;;;;;32.73;23.17;;;5.60;1.00;;;;;;5058744;28;20510;-77
2024/03/07 06:43:06;;;;;;;30.10;23.27;;;5.60;1.00;;;;;;5056437;28;20570;-79
2024/03/07 06:45:35;;;;;;;31.23;22.47;;;5.60;1.00;;;;;;5058573;28;20474;-79
2024/03/07 06:48:06;;;;;;;36.50;25.07;;;5.70;1.00;;;;;;5061424;28;20482;-79
2024/03/07 06:50:35;;;;;;;35.03;23.10;;;5.70;1.00;;;;;;5061845;28;20473;-79
2024/03/07 06:53:07;;;;;;;30.23;22.70;;;5.70;1.00;;;;;;5060552;28;20435;-79
2024/03/07 06:55:37;;;;;;;32.20;23.97;;;5.70;1.00;;;;;;5063562;28;20520;-80
2024/03/07 06:58:06;;;;;;;36.20;24.53;;;5.70;1.00;;;;;;5062555;28;20475;-80
2024/03/07 07:00:36;;;;;;;33.20;24.00;;;5.80;1.00;;;;;;5058480;28;20575;-79
2024/03/07 07:03:06;;;;;;;31.73;22.97;;;5.80;1.00;;;;;;5061798;28;20460;-79
2024/03/07 07:05:35;;;;;;;37.17;24.27;;;5.90;1.00;;;;;;5062714;28;20535;-79
2024/03/07 07:08:06;;;;;;;31.43;23.93;;;5.90;1.00;;;;;;5058074;28;20971;-80
2024/03/07 07:10:35;;;;;;;32.60;23.57;;;5.90;1.00;;;;;;5059588;28;20492;-81
2024/03/07 07:13:06;;;;;;;32.30;24.20;;;5.90;1.00;;;;;;5064126;28;20454;-78
2024/03/07 07:15:36;;;;;;;34.63;23.73;;;6.00;1.00;;;;;;5060012;28;20443;-81
2024/03/07 07:18:07;;;;;;;33.33;24.03;;;6.00;1.00;;;;;;5062047;28;20463;-79
2024/03/07 07:20:35;;;;;;;31.37;23.33;;;6.10;1.00;;;;;;5061993;28;20516;-79
2024/03/07 07:23:04;;;;;;;31.73;23.20;;;6.00;1.00;;;;;;5054142;28;20448;-81
2024/03/07 07:25:33;;;;;;;32.30;23.50;;;6.10;1.00;;;;;;5058161;28;20471;-78
2024/03/07 07:28:04;;;;;;;38.63;26.30;;;6.10;1.00;;;;;;5058393;28;20469;-78
2024/03/07 07:30:34;;;;;;;35.27;22.77;;;6.10;1.00;;;;;;5055038;28;20444;-79
2024/03/07 07:33:05;;;;;;;31.97;22.27;;;6.10;1.00;;;;;;5058596;28;20451;-79
2024/03/07 07:35:34;;;;;;;31.10;21.77;;;6.10;1.00;;;;;;5058500;28;20443;-79
2024/03/07 07:38:03;;;;;;;34.87;24.17;;;6.20;1.00;;;;;;5060932;28;20473;-80
2024/03/07 07:40:33;;;;;;;29.83;21.60;;;6.30;1.00;;;;;;5061223;28;20494;-80
2024/03/07 07:43:02;;;;;;;31.83;21.80;;;6.30;1.00;;;;;;5059657;28;20448;-79
2024/03/07 07:45:32;;;;;;;29.50;21.23;;;6.30;1.00;;;;;;5061351;28;20508;-82
2024/03/07 07:48:02;;;;;;;30.87;21.73;;;6.30;1.00;;;;;;5059860;28;20463;-82
2024/03/07 07:50:33;;;;;;;26.97;20.80;;;6.30;1.00;;;;;;5058676;28;21233;-78
2024/03/07 07:53:01;;;;;;;31.77;22.53;;;6.30;1.00;;;;;;5055363;28;20466;-79
2024/03/07 07:55:30;;;;;;;30.27;21.53;;;6.40;1.00;;;;;;5059753;28;20455;-83
2024/03/07 07:57:59;;;;;;;33.43;22.20;;;6.50;1.00;;;;;;5060293;28;20487;-78
2024/03/07 08:00:30;;;;;;;29.73;21.17;;;6.40;99.90;;;;;;5053516;28;20453;-79
2024/03/07 08:03:01;;;;;;;29.80;20.93;;;6.60;1.00;;;;;;5061370;28;20479;-78
2024/03/07 08:05:35;;;;;;;30.53;20.23;;;6.70;99.90;;;;;;5057230;28;20499;-81
2024/03/07 08:08:06;;;;;;;31.53;23.03;;;7.00;99.90;;;;;;5057284;28;20475;-79
2024/03/07 08:10:36;;;;;;;29.43;21.00;;;7.20;99.90;;;;;;5057468;28;20460;-78
2024/03/07 08:13:08;;;;;;;25.70;21.63;;;7.30;99.90;;;;;;5058002;28;20459;-78
2024/03/07 08:15:36;;;;;;;28.37;20.30;;;7.30;99.90;;;;;;5060721;28;21023;-78
2024/03/07 08:18:08;;;;;;;31.77;21.80;;;7.40;99.90;;;;;;5059801;28;20511;-79
2024/03/07 08:20:39;;;;;;;28.73;20.93;;;7.40;99.90;;;;;;5058522;28;20441;-77
2024/03/07 08:23:08;;;;;;;28.87;20.73;;;7.40;99.90;;;;;;5055094;28;20506;-78
2024/03/07 08:25:39;;;;;;;29.37;19.80;;;7.40;99.90;;;;;;5057315;28;20581;-82
2024/03/07 08:28:08;;;;;;;35.80;20.93;;;7.30;99.90;;;;;;5056931;28;20485;-78
2024/03/07 08:30:36;;;;;;;30.40;22.13;;;7.30;99.90;;;;;;5059151;28;20456;-80
2024/03/07 08:33:05;;;;;;;32.60;22.93;;;7.30;99.90;;;;;;5059803;28;20440;-79
2024/03/07 08:35:35;;;;;;;30.07;22.53;;;7.30;99.90;;;;;;5057925;28;20503;-80
2024/03/07 08:38:05;;;;;;;32.07;21.50;;;7.20;99.90;;;;;;5056999;28;20454;-79
2024/03/07 08:40:33;;;;;;;29.50;21.60;;;7.10;99.90;;;;;;5055670;28;20969;-76
2024/03/07 08:43:03;;;;;;;29.63;20.90;;;7.00;99.90;;;;;;5059889;28;20431;-80
2024/03/07 08:45:33;;;;;;;34.00;24.10;;;7.00;99.90;;;;;;5057132;28;20558;-80
2024/03/07 08:48:05;;;;;;;30.30;22.10;;;7.00;99.90;;;;;;5057680;28;20480;-78
2024/03/07 08:50:34;;;;;;;32.30;22.90;;;7.00;99.90;;;;;;5060247;28;20921;-79
2024/03/07 08:53:05;;;;;;;28.87;24.53;;;6.90;99.90;;;;;;5056723;28;20478;-80
2024/03/07 08:55:35;;;;;;;31.00;22.43;;;7.00;99.90;;;;;;5057346;28;20441;-79
2024/03/07 08:58:06;;;;;;;30.67;22.00;;;7.00;99.90;;;;;;5057690;28;20519;-79
2024/03/07 09:00:35;;;;;;;32.23;23.67;;;7.00;99.90;;;;;;5057740;28;20547;-79
2024/03/07 09:03:09;;;;;;;32.90;22.30;;;7.10;99.90;;;;;;5057361;28;20457;-80
2024/03/07 09:05:40;;;;;;;33.90;23.43;;;7.10;99.90;;;;;;5058177;28;20479;-78
2024/03/07 09:08:10;;;;;;;37.63;23.70;;;7.10;99.90;;;;;;5056673;28;20472;-79
2024/03/07 09:10:41;;;;;;;31.57;23.10;;;7.10;99.90;;;;;;5057595;28;20452;-79
2024/03/07 09:13:10;;;;;;;33.33;23.10;;;7.10;99.90;;;;;;5058229;28;20853;-78
2024/03/07 09:15:39;;;;;;;31.20;24.37;;;7.10;99.90;;;;;;5057541;28;20908;-81
2024/03/07 09:18:08;;;;;;;31.27;23.57;;;7.00;99.90;;;;;;5054704;28;20491;-79
2024/03/07 09:20:37;;;;;;;41.80;23.90;;;7.10;99.90;;;;;;5055342;28;20475;-79
2024/03/07 09:23:06;;;;;;;31.33;21.73;;;7.10;99.90;;;;;;5058557;28;20452;-79
2024/03/07 09:25:36;;;;;;;34.90;22.37;;;7.00;99.90;;;;;;5053630;28;21032;-80
2024/03/07 09:28:05;;;;;;;30.17;22.27;;;7.00;99.90;;;;;;5054668;28;20482;-78
2024/03/07 09:30:38;;;;;;;36.47;24.40;;;7.10;99.90;;;;;;5058639;28;20459;-78
2024/03/07 09:33:10;;;;;;;34.80;24.80;;;7.10;99.90;;;;;;5058434;28;20457;-80
2024/03/07 09:35:39;;;;;;;34.20;23.27;;;7.10;99.90;;;;;;5059369;28;20499;-81
2024/03/07 09:38:07;;;;;;;31.80;22.17;;;7.10;99.90;;;;;;5058078;28;20476;-78
2024/03/07 09:40:37;;;;;;;32.30;22.80;;;7.20;99.90;;;;;;5055883;28;20478;-78
2024/03/07 09:43:07;;;;;;;33.73;23.53;;;7.20;99.90;;;;;;5053238;28;20495;-78
2024/03/07 09:45:37;;;;;;;35.13;23.33;;;7.10;99.90;;;;;;5056507;28;20555;-79
2024/03/07 09:48:08;;;;;;;32.90;24.33;;;7.10;99.90;;;;;;5057910;28;21170;-77
2024/03/07 09:50:38;;;;;;;35.37;25.07;;;7.20;99.90;;;;;;5054786;28;20464;-79
2024/03/07 09:53:06;;;;;;;37.17;23.67;;;7.10;99.90;;;;;;5054572;28;20973;-79
2024/03/07 09:55:37;;;;;;;32.50;24.07;;;7.20;99.90;;;;;;5058733;28;20554;-80
2024/03/07 09:58:09;;;;;;;33.93;24.83;;;7.30;99.90;;;;;;5058327;28;20477;-80
2024/03/07 10:00:40;;;;;;;33.87;22.50;;;7.30;99.90;;;;;;5057448;28;20468;-78
2024/03/07 10:03:12;;;;;;;35.43;23.80;;;7.30;99.90;;;;;;5052180;28;20460;-80
2024/03/07 10:05:42;;;;;;;32.70;22.37;;;7.30;99.90;;;;;;5050008;28;21017;-81
2024/03/07 10:08:12;;;;;;;33.77;23.37;;;7.20;99.90;;;;;;5050770;28;20480;-79
2024/03/07 10:10:41;;;;;;;28.83;20.80;;;7.10;99.90;;;;;;5054018;28;20546;-78
2024/03/07 10:13:09;;;;;;;32.77;22.73;;;7.10;99.90;;;;;;5058132;28;20487;-78
2024/03/07 10:15:39;;;;;;;33.17;21.73;;;7.00;99.90;;;;;;5056012;28;20554;-79
2024/03/07 10:18:09;;;;;;;35.43;22.73;;;7.10;99.90;;;;;;5057934;28;21091;-80
2024/03/07 10:20:39;;;;;;;30.60;21.80;;;7.20;99.90;;;;;;5049302;28;20443;-79
2024/03/07 10:23:10;;;;;;;33.93;21.30;;;7.20;99.90;;;;;;5053437;28;20483;-78
2024/03/07 10:25:38;;;;;;;34.50;23.30;;;7.30;1.00;;;;;;5057438;28;20471;-78
2024/03/07 10:28:10;;;;;;;29.73;21.93;;;7.50;1.00;;;;;;5055401;28;20612;-79
2024/03/07 10:30:44;;;;;;;31.57;22.80;;;7.50;99.90;;;;;;5060974;28;20518;-80
2024/03/07 10:33:14;;;;;;;31.80;22.10;;;7.50;99.90;;;;;;5055275;28;20450;-78
2024/03/07 10:35:42;;;;;;;32.80;21.20;;;7.50;99.90;;;;;;5057263;28;20459;-80
2024/03/07 10:38:11;;;;;;;26.60;20.50;;;7.60;99.90;;;;;;5053756;28;21014;-78
2024/03/07 10:40:43;;;;;;;34.87;20.90;;;7.60;99.90;;;;;;5060035;28;20522;-80
2024/03/07 10:43:14;;;;;;;28.43;20.50;;;7.60;99.90;;;;;;5057077;28;20472;-80
2024/03/07 10:45:47;;;;;;;33.23;22.43;;;7.60;99.90;;;;;;5056095;28;20456;-78
2024/03/07 10:48:19;;;;;;;32.43;22.83;;;7.70;99.90;;;;;;5052612;28;20526;-80
2024/03/07 10:51:05;;;;;;;26.50;21.37;;;7.70;99.90;;;;;;5058879;28;20539;-79
2024/03/07 10:53:42;;;;;;;29.90;19.47;;;7.60;99.90;;;;;;5053835;28;20461;-80
2024/03/07 10:56:30;;;;;;;28.87;18.77;;;7.50;99.90;;;;;;5055639;28;20428;-82
2024/03/07 10:59:18;;;;;;;27.53;18.30;;;7.20;99.90;;;;;;5056345;28;20453;-77
2024/03/07 11:01:54;;;;;;;26.23;18.70;;;7.50;99.90;;;;;;5056811;28;20457;-81
2024/03/07 11:04:24;;;;;;;25.40;18.17;;;7.60;99.90;;;;;;5058251;28;20489;-78
2024/03/07 11:06:53;;;;;;;24.90;19.13;;;7.50;99.90;;;;;;5055224;28;20474;-77
2024/03/07 11:09:29;;;;;;;26.37;18.10;;;7.70;99.90;;;;;;5055852;28;20446;-78
2024/03/07 11:11:59;;;;;;;28.03;20.03;;;7.80;99.90;;;;;;5058753;28;21027;-81
2024/03/07 11:14:30;;;;;;;27.10;17.67;;;7.80;99.90;;;;;;5058871;28;20453;-79
2024/03/07 11:17:00;;;;;;;24.17;17.70;;;7.70;99.90;;;;;;5054257;28;21035;-79
2024/03/07 11:19:31;;;;;;;26.57;18.17;;;7.90;99.90;;;;;;5050887;28;20453;-79
2024/03/07 11:22:00;;;;;;;28.07;19.40;;;8.00;99.90;;;;;;5056840;28;20812;-80
2024/03/07 11:24:32;;;;;;;24.63;18.10;;;8.40;99.90;;;;;;5052160;28;20442;-78
2024/03/07 11:27:04;;;;;;;24.70;17.07;;;9.80;99.90;;;;;;5058142;28;20491;-79
2024/03/07 11:29:48;;;;;;;23.30;16.80;;;11.20;99.90;;;;;;5054664;28;20449;-78
2024/03/07 11:32:17;;;;;;;27.87;17.37;;;9.90;99.90;;;;;;5055032;28;20800;-79
2024/03/07 11:34:47;;;;;;;21.57;16.60;;;9.40;99.90;;;;;;5059118;28;20858;-79
2024/03/07 11:37:22;;;;;;;25.87;16.43;;;9.10;99.90;;;;;;5060658;28;20481;-82
2024/03/07 11:39:53;;;;;;;22.27;15.80;;;8.70;99.90;;;;;;5062682;28;21060;-79
2024/03/07 11:42:26;;;;;;;24.47;17.20;;;8.60;99.90;;;;;;5060393;28;20504;-80
2024/03/07 11:44:57;;;;;;;26.90;17.63;;;8.20;99.90;;;;;;5060162;28;20462;-78
2024/03/07 11:47:28;;;;;;;25.63;18.10;;;8.10;99.90;;;;;;5058408;28;20500;-76
2024/03/07 11:49:58;;;;;;;21.17;16.57;;;8.80;99.90;;;;;;5057907;28;20485;-77
2024/03/07 11:52:27;;;;;;;23.13;18.07;;;8.50;99.90;;;;;;5058121;28;20465;-78
2024/03/07 11:55:03;;;;;;;23.30;17.33;;;8.90;99.90;;;;;;5056561;28;21216;-79
2024/03/07 11:57:33;;;;;;;24.20;16.23;;;9.00;99.90;;;;;;5055766;28;20547;-77
2024/03/07 12:00:08;;;;;;;26.43;17.47;;;8.80;99.90;;;;;;5062210;28;20441;-77
2024/03/07 12:02:38;;;;;;;26.13;18.43;;;8.80;99.90;;;;;;5060267;28;20515;-81
2024/03/07 12:05:08;;;;;;;26.83;19.13;;;8.80;99.90;;;;;;5059915;28;20453;-77
2024/03/07 12:07:38;;;;;;;27.50;17.20;;;8.80;99.90;;;;;;5057914;28;20485;-79
2024/03/07 12:10:07;;;;;;;37.23;19.33;;;8.70;99.90;;;;;;5056057;28;20489;-79
2024/03/07 12:12:38;;;;;;;27.33;17.53;;;8.70;99.90;;;;;;5056182;28;20510;-78
2024/03/07 12:15:19;;;;;;;22.83;17.63;;;8.70;99.90;;;;;;5056705;28;20473;-79
2024/03/07 12:17:49;;;;;;;28.00;18.23;;;8.40;99.90;;;;;;5053259;28;20470;-77
2024/03/07 12:20:30;;;;;;;26.33;19.27;;;8.20;99.90;;;;;;5054819;28;20490;-79
2024/03/07 12:23:02;;;;;;;28.50;18.17;;;8.40;99.90;;;;;;5054886;28;20813;-82
2024/03/07 12:25:31;;;;;;;24.77;17.77;;;8.10;99.90;;;;;;5058998;28;20445;-78
2024/03/07 12:28:05;;;;;;;29.20;18.67;;;8.20;99.90;;;;;;5057695;28;20489;-81
2024/03/07 12:30:39;;;;;;;30.20;19.27;;;8.30;99.90;;;;;;5058475;28;20455;-77
2024/03/07 12:33:08;;;;;;;29.53;19.47;;;8.20;99.90;;;;;;5056405;28;20966;-80
2024/03/07 12:35:37;;;;;;;32.20;20.57;;;8.30;99.90;;;;;;5057841;28;20458;-78
2024/03/07 12:38:05;;;;;;;26.20;19.30;;;8.30;99.90;;;;;;5061708;28;20556;-80
2024/03/07 12:40:36;;;;;;;30.20;19.43;;;8.30;99.90;;;;;;5058390;28;20457;-78
2024/03/07 12:43:14;;;;;;;30.77;19.30;;;8.30;99.90;;;;;;5061139;28;21008;-79
2024/03/07 12:45:46;;;;;;;28.47;20.27;;;8.40;99.90;;;;;;5057643;28;20445;-78
2024/03/07 12:48:14;;;;;;;36.23;20.33;;;8.50;99.90;;;;;;5057085;28;20476;-79
2024/03/07 12:50:42;;;;;;;31.03;19.57;;;8.40;99.90;;;;;;5055925;28;20462;-78
2024/03/07 12:53:12;;;;;;;26.83;19.00;;;8.40;99.90;;;;;;5059146;28;20469;-79
2024/03/07 12:55:42;;;;;;;32.77;20.37;;;8.40;99.90;;;;;;5061709;28;20534;-80